sensor_id;sensor_type;location;lat;lon;timestamp;P1;durP1;ratioP1;P2;durP2;ratioP2
28481;SDS011;15703;49.588;6.260;2023-02-22T00:01:05;19.73;;;13.17;;
28481;SDS011;15703;49.588;6.260;2023-02-22T00:03:39;14.87;;;11.70;;
28481;SDS011;15703;49.588;6.260;2023-02-22T00:06:02;18.27;;;12.57;;
28481;SDS011;15703;49.588;6.260;2023-02-22T00:08:27;21.90;;;13.77;;
28481;SDS011;15703;49.588;6.260;2023-02-22T00:10:50;18.47;;;12.40;;
28481;SDS011;15703;49.588;6.260;2023-02-22T00:13:13;17.23;;;12.10;;
28481;SDS011;15703;49.588;6.260;2023-02-22T00:15:35;17.73;;;12.73;;
28481;SDS011;15703;49.588;6.260;2023-02-22T00:18:02;20.13;;;13.77;;
28481;SDS011;15703;49.588;6.260;2023-02-22T00:20:25;21.10;;;13.63;;
28481;SDS011;15703;49.588;6.260;2023-02-22T00:22:48;20.20;;;12.80;;
28481;SDS011;15703;49.588;6.260;2023-02-22T00:25:12;20.17;;;12.53;;
28481;SDS011;15703;49.588;6.260;2023-02-22T00:27:37;17.20;;;11.87;;
28481;SDS011;15703;49.588;6.260;2023-02-22T00:29:59;17.13;;;11.13;;
28481;SDS011;15703;49.588;6.260;2023-02-22T00:32:22;20.40;;;13.60;;
28481;SDS011;15703;49.588;6.260;2023-02-22T00:34:44;19.40;;;12.80;;
28481;SDS011;15703;49.588;6.260;2023-02-22T00:37:11;19.90;;;13.47;;
28481;SDS011;15703;49.588;6.260;2023-02-22T00:39:33;15.47;;;12.50;;
28481;SDS011;15703;49.588;6.260;2023-02-22T00:41:56;18.20;;;12.90;;
28481;SDS011;15703;49.588;6.260;2023-02-22T00:44:18;17.53;;;12.57;;
28481;SDS011;15703;49.588;6.260;2023-02-22T00:46:41;19.43;;;13.43;;
28481;SDS011;15703;49.588;6.260;2023-02-22T00:49:15;17.37;;;13.20;;
28481;SDS011;15703;49.588;6.260;2023-02-22T00:51:37;21.77;;;15.13;;
28481;SDS011;15703;49.588;6.260;2023-02-22T00:54:00;16.70;;;11.60;;
28481;SDS011;15703;49.588;6.260;2023-02-22T00:56:22;17.10;;;12.73;;
28481;SDS011;15703;49.588;6.260;2023-02-22T00:58:45;17.60;;;13.10;;
28481;SDS011;15703;49.588;6.260;2023-02-22T01:01:07;19.70;;;12.87;;
28481;SDS011;15703;49.588;6.260;2023-02-22T01:03:31;23.00;;;14.93;;
28481;SDS011;15703;49.588;6.260;2023-02-22T01:05:55;18.87;;;13.33;;
28481;SDS011;15703;49.588;6.260;2023-02-22T01:08:43;17.70;;;13.77;;
28481;SDS011;15703;49.588;6.260;2023-02-22T01:11:06;24.07;;;15.47;;
28481;SDS011;15703;49.588;6.260;2023-02-22T01:13:28;15.67;;;13.00;;
28481;SDS011;15703;49.588;6.260;2023-02-22T01:15:53;19.53;;;12.47;;
28481;SDS011;15703;49.588;6.260;2023-02-22T01:18:17;18.67;;;12.77;;
28481;SDS011;15703;49.588;6.260;2023-02-22T01:20:57;23.20;;;14.57;;
28481;SDS011;15703;49.588;6.260;2023-02-22T01:23:23;22.73;;;14.17;;
28481;SDS011;15703;49.588;6.260;2023-02-22T01:25:46;18.50;;;14.47;;
28481;SDS011;15703;49.588;6.260;2023-02-22T01:28:09;19.57;;;12.90;;
28481;SDS011;15703;49.588;6.260;2023-02-22T01:30:34;17.07;;;12.40;;
28481;SDS011;15703;49.588;6.260;2023-02-22T01:32:58;22.23;;;14.80;;
28481;SDS011;15703;49.588;6.260;2023-02-22T01:35:22;23.97;;;14.57;;
28481;SDS011;15703;49.588;6.260;2023-02-22T01:37:45;17.93;;;13.67;;
28481;SDS011;15703;49.588;6.260;2023-02-22T01:40:08;23.80;;;14.23;;
28481;SDS011;15703;49.588;6.260;2023-02-22T01:42:31;20.57;;;13.47;;
28481;SDS011;15703;49.588;6.260;2023-02-22T01:47:35;21.10;;;14.03;;
28481;SDS011;15703;49.588;6.260;2023-02-22T01:50:06;22.00;;;15.87;;
28481;SDS011;15703;49.588;6.260;2023-02-22T01:52:31;24.03;;;15.17;;
28481;SDS011;15703;49.588;6.260;2023-02-22T01:54:54;21.27;;;14.13;;
28481;SDS011;15703;49.588;6.260;2023-02-22T01:57:23;17.83;;;12.60;;
28481;SDS011;15703;49.588;6.260;2023-02-22T01:59:46;19.00;;;13.30;;
28481;SDS011;15703;49.588;6.260;2023-02-22T02:02:10;20.03;;;13.50;;
28481;SDS011;15703;49.588;6.260;2023-02-22T02:04:33;21.37;;;14.23;;
28481;SDS011;15703;49.588;6.260;2023-02-22T02:06:57;20.00;;;13.90;;
28481;SDS011;15703;49.588;6.260;2023-02-22T02:09:38;17.37;;;13.03;;
28481;SDS011;15703;49.588;6.260;2023-02-22T02:12:01;19.30;;;14.43;;
28481;SDS011;15703;49.588;6.260;2023-02-22T02:17:08;20.73;;;13.53;;
28481;SDS011;15703;49.588;6.260;2023-02-22T02:32:00;23.17;;;15.50;;
28481;SDS011;15703;49.588;6.260;2023-02-22T02:34:30;19.77;;;13.30;;
28481;SDS011;15703;49.588;6.260;2023-02-22T02:39:29;21.77;;;14.43;;
28481;SDS011;15703;49.588;6.260;2023-02-22T02:41:52;20.77;;;13.63;;
28481;SDS011;15703;49.588;6.260;2023-02-22T02:44:29;21.43;;;14.00;;
28481;SDS011;15703;49.588;6.260;2023-02-22T02:49:28;16.97;;;12.90;;
28481;SDS011;15703;49.588;6.260;2023-02-22T02:51:51;15.80;;;12.33;;
28481;SDS011;15703;49.588;6.260;2023-02-22T02:54:15;19.60;;;13.07;;
28481;SDS011;15703;49.588;6.260;2023-02-22T02:56:37;21.20;;;13.37;;
28481;SDS011;15703;49.588;6.260;2023-02-22T02:59:00;18.70;;;12.57;;
28481;SDS011;15703;49.588;6.260;2023-02-22T03:01:29;20.23;;;13.23;;
28481;SDS011;15703;49.588;6.260;2023-02-22T03:06:25;21.07;;;12.50;;
28481;SDS011;15703;49.588;6.260;2023-02-22T03:08:57;15.17;;;12.47;;
28481;SDS011;15703;49.588;6.260;2023-02-22T03:11:21;16.47;;;12.57;;
28481;SDS011;15703;49.588;6.260;2023-02-22T03:19:10;21.53;;;13.73;;
28481;SDS011;15703;49.588;6.260;2023-02-22T03:24:52;18.73;;;14.10;;
28481;SDS011;15703;49.588;6.260;2023-02-22T03:27:23;18.30;;;12.97;;
28481;SDS011;15703;49.588;6.260;2023-02-22T03:29:51;17.10;;;12.40;;
28481;SDS011;15703;49.588;6.260;2023-02-22T03:32:19;23.30;;;13.47;;
28481;SDS011;15703;49.588;6.260;2023-02-22T03:34:48;21.17;;;13.07;;
28481;SDS011;15703;49.588;6.260;2023-02-22T03:37:18;17.40;;;12.63;;
28481;SDS011;15703;49.588;6.260;2023-02-22T03:39:43;16.80;;;12.87;;
28481;SDS011;15703;49.588;6.260;2023-02-22T03:42:09;14.93;;;12.43;;
28481;SDS011;15703;49.588;6.260;2023-02-22T03:44:34;18.10;;;12.97;;
28481;SDS011;15703;49.588;6.260;2023-02-22T03:47:05;19.67;;;13.53;;
28481;SDS011;15703;49.588;6.260;2023-02-22T03:49:31;20.33;;;13.17;;
28481;SDS011;15703;49.588;6.260;2023-02-22T03:51:56;17.37;;;11.70;;
28481;SDS011;15703;49.588;6.260;2023-02-22T03:54:20;14.80;;;10.90;;
28481;SDS011;15703;49.588;6.260;2023-02-22T03:56:44;20.33;;;14.00;;
28481;SDS011;15703;49.588;6.260;2023-02-22T03:59:13;20.43;;;14.30;;
28481;SDS011;15703;49.588;6.260;2023-02-22T04:01:46;21.47;;;14.83;;
28481;SDS011;15703;49.588;6.260;2023-02-22T04:04:20;18.57;;;13.00;;
28481;SDS011;15703;49.588;6.260;2023-02-22T04:06:44;20.17;;;13.60;;
28481;SDS011;15703;49.588;6.260;2023-02-22T04:09:08;21.13;;;14.00;;
28481;SDS011;15703;49.588;6.260;2023-02-22T04:11:30;20.10;;;13.57;;
28481;SDS011;15703;49.588;6.260;2023-02-22T04:13:55;21.43;;;14.03;;
28481;SDS011;15703;49.588;6.260;2023-02-22T04:16:18;20.47;;;13.50;;
28481;SDS011;15703;49.588;6.260;2023-02-22T04:18:44;22.70;;;14.23;;
28481;SDS011;15703;49.588;6.260;2023-02-22T04:21:08;19.97;;;13.43;;
28481;SDS011;15703;49.588;6.260;2023-02-22T04:23:34;22.93;;;13.70;;
28481;SDS011;15703;49.588;6.260;2023-02-22T04:25:57;18.70;;;13.10;;
28481;SDS011;15703;49.588;6.260;2023-02-22T04:28:20;21.57;;;13.93;;
28481;SDS011;15703;49.588;6.260;2023-02-22T04:30:48;17.67;;;13.00;;
28481;SDS011;15703;49.588;6.260;2023-02-22T04:33:12;19.40;;;12.90;;
28481;SDS011;15703;49.588;6.260;2023-02-22T04:35:35;19.90;;;13.10;;
28481;SDS011;15703;49.588;6.260;2023-02-22T04:37:59;20.53;;;12.67;;
28481;SDS011;15703;49.588;6.260;2023-02-22T04:40:21;22.77;;;14.40;;
28481;SDS011;15703;49.588;6.260;2023-02-22T04:42:44;19.30;;;12.77;;
28481;SDS011;15703;49.588;6.260;2023-02-22T04:45:07;18.17;;;12.47;;
28481;SDS011;15703;49.588;6.260;2023-02-22T04:47:30;20.53;;;14.43;;
28481;SDS011;15703;49.588;6.260;2023-02-22T04:49:53;17.23;;;12.97;;
28481;SDS011;15703;49.588;6.260;2023-02-22T04:52:16;15.77;;;12.33;;
28481;SDS011;15703;49.588;6.260;2023-02-22T04:54:38;15.97;;;12.67;;
28481;SDS011;15703;49.588;6.260;2023-02-22T04:57:04;22.00;;;14.30;;
28481;SDS011;15703;49.588;6.260;2023-02-22T04:59:27;18.97;;;13.27;;
28481;SDS011;15703;49.588;6.260;2023-02-22T05:01:53;22.47;;;13.73;;
28481;SDS011;15703;49.588;6.260;2023-02-22T05:04:15;18.73;;;12.63;;
28481;SDS011;15703;49.588;6.260;2023-02-22T05:06:38;17.63;;;11.93;;
28481;SDS011;15703;49.588;6.260;2023-02-22T05:09:02;18.07;;;12.47;;
28481;SDS011;15703;49.588;6.260;2023-02-22T05:11:24;21.87;;;13.53;;
28481;SDS011;15703;49.588;6.260;2023-02-22T05:13:54;17.63;;;12.87;;
28481;SDS011;15703;49.588;6.260;2023-02-22T05:16:17;15.73;;;12.37;;
28481;SDS011;15703;49.588;6.260;2023-02-22T05:18:40;16.53;;;12.20;;
28481;SDS011;15703;49.588;6.260;2023-02-22T05:21:03;17.67;;;11.67;;
28481;SDS011;15703;49.588;6.260;2023-02-22T05:23:28;19.67;;;13.40;;
28481;SDS011;15703;49.588;6.260;2023-02-22T05:25:50;18.43;;;12.73;;
28481;SDS011;15703;49.588;6.260;2023-02-22T05:28:16;18.00;;;12.60;;
28481;SDS011;15703;49.588;6.260;2023-02-22T05:30:39;24.70;;;13.90;;
28481;SDS011;15703;49.588;6.260;2023-02-22T05:33:01;19.67;;;14.17;;
28481;SDS011;15703;49.588;6.260;2023-02-22T05:35:24;17.03;;;13.50;;
28481;SDS011;15703;49.588;6.260;2023-02-22T05:37:50;18.87;;;13.67;;
28481;SDS011;15703;49.588;6.260;2023-02-22T05:40:12;18.17;;;12.60;;
28481;SDS011;15703;49.588;6.260;2023-02-22T05:42:35;21.87;;;13.97;;
28481;SDS011;15703;49.588;6.260;2023-02-22T05:44:58;19.63;;;13.57;;
28481;SDS011;15703;49.588;6.260;2023-02-22T05:47:23;20.73;;;13.30;;
28481;SDS011;15703;49.588;6.260;2023-02-22T05:49:45;18.00;;;12.67;;
28481;SDS011;15703;49.588;6.260;2023-02-22T05:52:08;23.37;;;14.57;;
28481;SDS011;15703;49.588;6.260;2023-02-22T05:54:30;21.27;;;14.97;;
28481;SDS011;15703;49.588;6.260;2023-02-22T05:56:53;17.57;;;12.97;;
28481;SDS011;15703;49.588;6.260;2023-02-22T05:59:15;17.27;;;11.97;;
28481;SDS011;15703;49.588;6.260;2023-02-22T06:01:38;16.30;;;12.07;;
28481;SDS011;15703;49.588;6.260;2023-02-22T06:04:00;20.77;;;14.70;;
28481;SDS011;15703;49.588;6.260;2023-02-22T06:06:23;27.40;;;15.27;;
28481;SDS011;15703;49.588;6.260;2023-02-22T06:08:46;23.50;;;14.40;;
28481;SDS011;15703;49.588;6.260;2023-02-22T06:11:09;22.40;;;14.27;;
28481;SDS011;15703;49.588;6.260;2023-02-22T06:13:31;24.80;;;15.30;;
28481;SDS011;15703;49.588;6.260;2023-02-22T06:15:54;18.60;;;14.27;;
28481;SDS011;15703;49.588;6.260;2023-02-22T06:18:19;25.23;;;14.97;;
28481;SDS011;15703;49.588;6.260;2023-02-22T06:20:44;26.67;;;14.63;;
28481;SDS011;15703;49.588;6.260;2023-02-22T06:23:07;24.33;;;13.07;;
28481;SDS011;15703;49.588;6.260;2023-02-22T06:25:55;17.50;;;12.33;;
28481;SDS011;15703;49.588;6.260;2023-02-22T06:28:19;21.53;;;14.03;;
28481;SDS011;15703;49.588;6.260;2023-02-22T06:30:44;20.20;;;14.20;;
28481;SDS011;15703;49.588;6.260;2023-02-22T06:33:07;20.13;;;13.87;;
28481;SDS011;15703;49.588;6.260;2023-02-22T06:35:50;21.43;;;13.73;;
28481;SDS011;15703;49.588;6.260;2023-02-22T06:38:19;23.23;;;14.07;;
28481;SDS011;15703;49.588;6.260;2023-02-22T06:43:24;27.23;;;14.23;;
28481;SDS011;15703;49.588;6.260;2023-02-22T06:45:46;17.33;;;13.53;;
28481;SDS011;15703;49.588;6.260;2023-02-22T06:48:11;20.23;;;13.23;;
28481;SDS011;15703;49.588;6.260;2023-02-22T06:50:34;20.60;;;12.93;;
28481;SDS011;15703;49.588;6.260;2023-02-22T06:53:04;18.57;;;13.40;;
28481;SDS011;15703;49.588;6.260;2023-02-22T06:55:30;17.97;;;13.53;;
28481;SDS011;15703;49.588;6.260;2023-02-22T06:57:53;28.37;;;15.37;;
28481;SDS011;15703;49.588;6.260;2023-02-22T07:00:21;28.30;;;16.13;;
28481;SDS011;15703;49.588;6.260;2023-02-22T07:02:45;23.00;;;14.20;;
28481;SDS011;15703;49.588;6.260;2023-02-22T07:05:11;29.03;;;15.53;;
28481;SDS011;15703;49.588;6.260;2023-02-22T07:07:35;21.87;;;14.57;;
28481;SDS011;15703;49.588;6.260;2023-02-22T07:09:59;23.60;;;15.30;;
28481;SDS011;15703;49.588;6.260;2023-02-22T07:12:28;28.07;;;16.90;;
28481;SDS011;15703;49.588;6.260;2023-02-22T07:15:05;26.93;;;14.80;;
28481;SDS011;15703;49.588;6.260;2023-02-22T07:17:29;24.57;;;15.23;;
28481;SDS011;15703;49.588;6.260;2023-02-22T07:19:52;26.87;;;15.23;;
28481;SDS011;15703;49.588;6.260;2023-02-22T07:22:14;25.87;;;15.73;;
28481;SDS011;15703;49.588;6.260;2023-02-22T07:24:37;28.63;;;16.80;;
28481;SDS011;15703;49.588;6.260;2023-02-22T07:27:01;23.77;;;14.53;;
28481;SDS011;15703;49.588;6.260;2023-02-22T07:29:23;24.97;;;15.57;;
28481;SDS011;15703;49.588;6.260;2023-02-22T07:31:46;24.70;;;15.40;;
28481;SDS011;15703;49.588;6.260;2023-02-22T07:34:08;28.03;;;16.10;;
28481;SDS011;15703;49.588;6.260;2023-02-22T07:36:30;27.63;;;16.60;;
28481;SDS011;15703;49.588;6.260;2023-02-22T07:38:52;30.23;;;16.13;;
28481;SDS011;15703;49.588;6.260;2023-02-22T07:41:15;25.67;;;15.97;;
28481;SDS011;15703;49.588;6.260;2023-02-22T07:43:38;29.03;;;15.50;;
28481;SDS011;15703;49.588;6.260;2023-02-22T07:46:00;24.90;;;15.90;;
28481;SDS011;15703;49.588;6.260;2023-02-22T07:48:24;28.23;;;16.10;;
28481;SDS011;15703;49.588;6.260;2023-02-22T07:50:46;25.87;;;16.10;;
28481;SDS011;15703;49.588;6.260;2023-02-22T07:53:10;29.03;;;17.63;;
28481;SDS011;15703;49.588;6.260;2023-02-22T07:55:33;22.67;;;15.50;;
28481;SDS011;15703;49.588;6.260;2023-02-22T07:57:56;31.53;;;17.47;;
28481;SDS011;15703;49.588;6.260;2023-02-22T08:00:29;24.67;;;15.70;;
28481;SDS011;15703;49.588;6.260;2023-02-22T08:02:52;27.37;;;16.53;;
28481;SDS011;15703;49.588;6.260;2023-02-22T08:05:15;33.83;;;19.57;;
28481;SDS011;15703;49.588;6.260;2023-02-22T08:07:37;42.63;;;25.63;;
28481;SDS011;15703;49.588;6.260;2023-02-22T08:10:00;29.73;;;18.43;;
28481;SDS011;15703;49.588;6.260;2023-02-22T08:12:26;26.67;;;17.03;;
28481;SDS011;15703;49.588;6.260;2023-02-22T08:14:48;25.23;;;17.60;;
28481;SDS011;15703;49.588;6.260;2023-02-22T08:17:10;25.03;;;17.10;;
28481;SDS011;15703;49.588;6.260;2023-02-22T08:19:33;27.60;;;16.70;;
28481;SDS011;15703;49.588;6.260;2023-02-22T08:21:55;29.70;;;17.40;;
28481;SDS011;15703;49.588;6.260;2023-02-22T08:24:17;28.63;;;18.10;;
28481;SDS011;15703;49.588;6.260;2023-02-22T08:26:43;28.90;;;16.30;;
28481;SDS011;15703;49.588;6.260;2023-02-22T08:29:06;26.00;;;16.03;;
28481;SDS011;15703;49.588;6.260;2023-02-22T08:31:40;27.83;;;16.57;;
28481;SDS011;15703;49.588;6.260;2023-02-22T08:34:02;27.37;;;17.93;;
28481;SDS011;15703;49.588;6.260;2023-02-22T08:36:24;28.90;;;18.07;;
28481;SDS011;15703;49.588;6.260;2023-02-22T08:38:47;26.30;;;16.50;;
28481;SDS011;15703;49.588;6.260;2023-02-22T08:41:09;29.53;;;19.30;;
28481;SDS011;15703;49.588;6.260;2023-02-22T08:43:31;34.70;;;19.93;;
28481;SDS011;15703;49.588;6.260;2023-02-22T08:45:54;28.43;;;17.40;;
28481;SDS011;15703;49.588;6.260;2023-02-22T08:48:18;28.97;;;18.20;;
28481;SDS011;15703;49.588;6.260;2023-02-22T08:50:40;26.47;;;17.73;;
28481;SDS011;15703;49.588;6.260;2023-02-22T08:53:04;29.73;;;20.03;;
28481;SDS011;15703;49.588;6.260;2023-02-22T08:55:28;26.17;;;18.60;;
28481;SDS011;15703;49.588;6.260;2023-02-22T08:57:52;27.23;;;16.43;;
28481;SDS011;15703;49.588;6.260;2023-02-22T09:00:15;22.73;;;15.50;;
28481;SDS011;15703;49.588;6.260;2023-02-22T09:02:38;20.43;;;13.70;;
28481;SDS011;15703;49.588;6.260;2023-02-22T09:05:00;19.27;;;12.27;;
28481;SDS011;15703;49.588;6.260;2023-02-22T09:07:22;19.30;;;12.80;;
28481;SDS011;15703;49.588;6.260;2023-02-22T09:09:44;19.73;;;13.43;;
28481;SDS011;15703;49.588;6.260;2023-02-22T09:12:07;17.37;;;12.83;;
28481;SDS011;15703;49.588;6.260;2023-02-22T09:14:29;19.23;;;13.07;;
28481;SDS011;15703;49.588;6.260;2023-02-22T09:16:51;15.97;;;11.43;;
28481;SDS011;15703;49.588;6.260;2023-02-22T09:19:14;16.83;;;13.00;;
28481;SDS011;15703;49.588;6.260;2023-02-22T09:21:36;19.23;;;12.83;;
28481;SDS011;15703;49.588;6.260;2023-02-22T09:24:00;17.90;;;12.90;;
28481;SDS011;15703;49.588;6.260;2023-02-22T09:26:28;28.40;;;13.13;;
28481;SDS011;15703;49.588;6.260;2023-02-22T09:28:51;21.47;;;13.20;;
28481;SDS011;15703;49.588;6.260;2023-02-22T09:31:13;16.57;;;12.10;;
28481;SDS011;15703;49.588;6.260;2023-02-22T09:33:35;24.53;;;13.33;;
28481;SDS011;15703;49.588;6.260;2023-02-22T09:35:58;17.37;;;12.53;;
28481;SDS011;15703;49.588;6.260;2023-02-22T09:38:22;19.03;;;13.13;;
28481;SDS011;15703;49.588;6.260;2023-02-22T09:40:47;19.73;;;11.97;;
28481;SDS011;15703;49.588;6.260;2023-02-22T09:48:09;19.93;;;13.20;;
28481;SDS011;15703;49.588;6.260;2023-02-22T09:50:42;17.83;;;12.50;;
28481;SDS011;15703;49.588;6.260;2023-02-22T09:55:39;17.97;;;12.60;;
28481;SDS011;15703;49.588;6.260;2023-02-22T09:58:06;16.93;;;13.10;;
28481;SDS011;15703;49.588;6.260;2023-02-22T10:00:32;19.07;;;13.00;;
28481;SDS011;15703;49.588;6.260;2023-02-22T10:05:36;17.57;;;11.83;;
28481;SDS011;15703;49.588;6.260;2023-02-22T10:08:00;22.53;;;12.87;;
28481;SDS011;15703;49.588;6.260;2023-02-22T10:10:28;20.00;;;12.27;;
28481;SDS011;15703;49.588;6.260;2023-02-22T10:12:58;19.40;;;12.27;;
28481;SDS011;15703;49.588;6.260;2023-02-22T10:17:54;21.77;;;12.77;;
28481;SDS011;15703;49.588;6.260;2023-02-22T10:25:43;23.97;;;13.00;;
28481;SDS011;15703;49.588;6.260;2023-02-22T10:28:15;15.87;;;13.20;;
28481;SDS011;15703;49.588;6.260;2023-02-22T10:30:46;21.60;;;12.80;;
28481;SDS011;15703;49.588;6.260;2023-02-22T10:33:20;19.37;;;13.80;;
28481;SDS011;15703;49.588;6.260;2023-02-22T10:35:43;22.30;;;13.37;;
28481;SDS011;15703;49.588;6.260;2023-02-22T10:40:36;22.77;;;14.20;;
28481;SDS011;15703;49.588;6.260;2023-02-22T10:43:06;24.17;;;12.90;;
28481;SDS011;15703;49.588;6.260;2023-02-22T10:45:30;19.90;;;13.50;;
28481;SDS011;15703;49.588;6.260;2023-02-22T10:47:53;22.30;;;14.57;;
28481;SDS011;15703;49.588;6.260;2023-02-22T10:50:19;19.67;;;13.53;;
28481;SDS011;15703;49.588;6.260;2023-02-22T10:52:42;23.03;;;14.80;;
28481;SDS011;15703;49.588;6.260;2023-02-22T10:55:05;21.13;;;15.10;;
28481;SDS011;15703;49.588;6.260;2023-02-22T10:57:36;19.57;;;14.60;;
28481;SDS011;15703;49.588;6.260;2023-02-22T11:02:40;21.87;;;15.43;;
28481;SDS011;15703;49.588;6.260;2023-02-22T11:05:24;19.20;;;14.17;;
28481;SDS011;15703;49.588;6.260;2023-02-22T11:07:47;22.03;;;15.67;;
28481;SDS011;15703;49.588;6.260;2023-02-22T11:10:09;23.23;;;15.03;;
28481;SDS011;15703;49.588;6.260;2023-02-22T11:12:33;23.63;;;15.60;;
28481;SDS011;15703;49.588;6.260;2023-02-22T11:17:45;22.15;;;14.82;;
28481;SDS011;15703;49.588;6.260;2023-02-22T11:20:17;21.97;;;14.80;;
28481;SDS011;15703;49.588;6.260;2023-02-22T11:22:45;20.67;;;14.97;;
28481;SDS011;15703;49.588;6.260;2023-02-22T11:25:16;20.00;;;14.73;;
28481;SDS011;15703;49.588;6.260;2023-02-22T11:27:40;21.53;;;16.30;;
28481;SDS011;15703;49.588;6.260;2023-02-22T11:32:43;23.80;;;15.52;;
28481;SDS011;15703;49.588;6.260;2023-02-22T11:35:30;21.37;;;16.37;;
28481;SDS011;15703;49.588;6.260;2023-02-22T11:37:53;26.13;;;15.90;;
28481;SDS011;15703;49.588;6.260;2023-02-22T11:40:30;23.70;;;16.00;;
28481;SDS011;15703;49.588;6.260;2023-02-22T11:43:05;19.23;;;15.63;;
28481;SDS011;15703;49.588;6.260;2023-02-22T11:45:32;22.70;;;17.03;;
28481;SDS011;15703;49.588;6.260;2023-02-22T11:47:59;22.70;;;16.63;;
28481;SDS011;15703;49.588;6.260;2023-02-22T11:52:49;24.10;;;17.27;;
28481;SDS011;15703;49.588;6.260;2023-02-22T11:55:23;23.23;;;17.60;;
28481;SDS011;15703;49.588;6.260;2023-02-22T11:58:06;21.60;;;17.47;;
28481;SDS011;15703;49.588;6.260;2023-02-22T12:05:57;25.07;;;18.27;;
28481;SDS011;15703;49.588;6.260;2023-02-22T12:08:24;22.30;;;17.50;;
28481;SDS011;15703;49.588;6.260;2023-02-22T12:21:09;27.20;;;18.20;;
28481;SDS011;15703;49.588;6.260;2023-02-22T12:23:43;24.00;;;17.80;;
28481;SDS011;15703;49.588;6.260;2023-02-22T12:26:13;22.90;;;16.92;;
28481;SDS011;15703;49.588;6.260;2023-02-22T12:28:38;23.13;;;17.27;;
28481;SDS011;15703;49.588;6.260;2023-02-22T12:31:06;24.27;;;17.95;;
28481;SDS011;15703;49.588;6.260;2023-02-22T12:33:37;25.40;;;16.35;;
28481;SDS011;15703;49.588;6.260;2023-02-22T12:36:02;23.60;;;17.20;;
28481;SDS011;15703;49.588;6.260;2023-02-22T12:43:55;24.33;;;17.27;;
28481;SDS011;15703;49.588;6.260;2023-02-22T12:46:22;24.13;;;16.73;;
28481;SDS011;15703;49.588;6.260;2023-02-22T12:48:53;21.40;;;17.40;;
28481;SDS011;15703;49.588;6.260;2023-02-22T12:53:54;18.50;;;15.80;;
28481;SDS011;15703;49.588;6.260;2023-02-22T13:01:22;21.15;;;16.70;;
28481;SDS011;15703;49.588;6.260;2023-02-22T13:03:57;20.20;;;16.58;;
28481;SDS011;15703;49.588;6.260;2023-02-22T13:09:21;21.30;;;16.80;;
28481;SDS011;15703;49.588;6.260;2023-02-22T13:14:25;24.08;;;17.40;;
28481;SDS011;15703;49.588;6.260;2023-02-22T13:17:03;20.83;;;16.23;;
28481;SDS011;15703;49.588;6.260;2023-02-22T13:22:19;23.95;;;16.83;;
28481;SDS011;15703;49.588;6.260;2023-02-22T13:24:55;25.15;;;15.88;;
28481;SDS011;15703;49.588;6.260;2023-02-22T13:28:21;23.30;;;17.30;;
28481;SDS011;15703;49.588;6.260;2023-02-22T13:30:52;25.98;;;17.23;;
28481;SDS011;15703;49.588;6.260;2023-02-22T13:36:02;23.52;;;17.05;;
28481;SDS011;15703;49.588;6.260;2023-02-22T13:43:23;24.83;;;17.00;;
28481;SDS011;15703;49.588;6.260;2023-02-22T13:48:36;22.42;;;17.42;;
28481;SDS011;15703;49.588;6.260;2023-02-22T13:51:08;22.08;;;16.92;;
28481;SDS011;15703;49.588;6.260;2023-02-22T13:53:37;23.05;;;17.75;;
28481;SDS011;15703;49.588;6.260;2023-02-22T13:56:04;22.17;;;17.98;;
28481;SDS011;15703;49.588;6.260;2023-02-22T13:58:27;22.50;;;16.98;;
28481;SDS011;15703;49.588;6.260;2023-02-22T14:00:50;23.48;;;17.73;;
28481;SDS011;15703;49.588;6.260;2023-02-22T14:08:05;24.02;;;17.35;;
28481;SDS011;15703;49.588;6.260;2023-02-22T14:10:35;22.70;;;16.65;;
28481;SDS011;15703;49.588;6.260;2023-02-22T14:13:08;22.92;;;16.45;;
28481;SDS011;15703;49.588;6.260;2023-02-22T14:15:30;20.67;;;15.85;;
28481;SDS011;15703;49.588;6.260;2023-02-22T14:17:57;21.30;;;16.60;;
28481;SDS011;15703;49.588;6.260;2023-02-22T14:20:23;25.25;;;18.00;;
28481;SDS011;15703;49.588;6.260;2023-02-22T14:22:56;19.00;;;16.30;;
28481;SDS011;15703;49.588;6.260;2023-02-22T14:27:50;25.40;;;16.77;;
28481;SDS011;15703;49.588;6.260;2023-02-22T14:30:24;23.88;;;16.80;;
28481;SDS011;15703;49.588;6.260;2023-02-22T14:32:47;22.13;;;16.40;;
28481;SDS011;15703;49.588;6.260;2023-02-22T14:35:12;22.42;;;16.90;;
28481;SDS011;15703;49.588;6.260;2023-02-22T14:37:50;21.80;;;16.67;;
28481;SDS011;15703;49.588;6.260;2023-02-22T14:40:22;24.63;;;17.63;;
28481;SDS011;15703;49.588;6.260;2023-02-22T14:42:50;21.83;;;17.87;;
28481;SDS011;15703;49.588;6.260;2023-02-22T14:50:23;21.53;;;17.17;;
28481;SDS011;15703;49.588;6.260;2023-02-22T14:52:45;21.70;;;15.77;;
28481;SDS011;15703;49.588;6.260;2023-02-22T14:55:16;22.87;;;15.93;;
28481;SDS011;15703;49.588;6.260;2023-02-22T14:57:45;18.30;;;14.23;;
28481;SDS011;15703;49.588;6.260;2023-02-22T15:00:18;22.60;;;16.00;;
28481;SDS011;15703;49.588;6.260;2023-02-22T15:02:42;24.33;;;15.17;;
28481;SDS011;15703;49.588;6.260;2023-02-22T15:05:05;19.57;;;14.17;;
28481;SDS011;15703;49.588;6.260;2023-02-22T15:07:28;19.97;;;14.60;;
28481;SDS011;15703;49.588;6.260;2023-02-22T15:09:52;20.23;;;14.30;;
28481;SDS011;15703;49.588;6.260;2023-02-22T15:12:22;20.37;;;14.43;;
28481;SDS011;15703;49.588;6.260;2023-02-22T15:14:49;23.97;;;15.43;;
28481;SDS011;15703;49.588;6.260;2023-02-22T15:17:35;20.97;;;15.40;;
28481;SDS011;15703;49.588;6.260;2023-02-22T15:20:00;22.63;;;14.80;;
28481;SDS011;15703;49.588;6.260;2023-02-22T15:22:31;22.03;;;14.60;;
28481;SDS011;15703;49.588;6.260;2023-02-22T15:24:57;20.00;;;14.33;;
28481;SDS011;15703;49.588;6.260;2023-02-22T15:27:20;21.27;;;14.93;;
28481;SDS011;15703;49.588;6.260;2023-02-22T15:29:43;21.43;;;14.27;;
28481;SDS011;15703;49.588;6.260;2023-02-22T15:32:19;21.13;;;14.23;;
28481;SDS011;15703;49.588;6.260;2023-02-22T15:34:50;21.37;;;14.53;;
28481;SDS011;15703;49.588;6.260;2023-02-22T15:37:18;21.27;;;14.63;;
28481;SDS011;15703;49.588;6.260;2023-02-22T15:39:45;21.33;;;15.13;;
28481;SDS011;15703;49.588;6.260;2023-02-22T15:42:10;22.10;;;14.13;;
28481;SDS011;15703;49.588;6.260;2023-02-22T15:44:52;20.47;;;14.97;;
28481;SDS011;15703;49.588;6.260;2023-02-22T15:47:19;22.67;;;15.70;;
28481;SDS011;15703;49.588;6.260;2023-02-22T15:49:42;21.90;;;14.60;;
28481;SDS011;15703;49.588;6.260;2023-02-22T15:52:17;25.73;;;16.10;;
28481;SDS011;15703;49.588;6.260;2023-02-22T15:54:43;20.53;;;15.23;;
28481;SDS011;15703;49.588;6.260;2023-02-22T15:57:07;26.10;;;15.83;;
28481;SDS011;15703;49.588;6.260;2023-02-22T15:59:29;24.33;;;16.40;;
28481;SDS011;15703;49.588;6.260;2023-02-22T16:01:56;26.43;;;16.23;;
28481;SDS011;15703;49.588;6.260;2023-02-22T16:04:28;26.83;;;16.80;;
28481;SDS011;15703;49.588;6.260;2023-02-22T16:06:52;26.07;;;16.77;;
28481;SDS011;15703;49.588;6.260;2023-02-22T16:09:23;25.47;;;16.70;;
28481;SDS011;15703;49.588;6.260;2023-02-22T16:11:47;26.13;;;16.60;;
28481;SDS011;15703;49.588;6.260;2023-02-22T16:19:53;22.67;;;15.30;;
28481;SDS011;15703;49.588;6.260;2023-02-22T16:24:48;26.60;;;15.77;;
28481;SDS011;15703;49.588;6.260;2023-02-22T16:29:42;25.37;;;16.73;;
28481;SDS011;15703;49.588;6.260;2023-02-22T16:32:04;22.80;;;16.30;;